createdAt,value
2023-01-12T00:02:07.742Z,8.20
2023-01-12T00:04:36.133Z,8.20
2023-01-12T00:07:06.738Z,8.20
2023-01-12T00:09:34.758Z,8.20
2023-01-12T00:12:06.055Z,8.20
2023-01-12T00:14:34.603Z,8.10
2023-01-12T00:17:02.808Z,8.10
2023-01-12T00:19:33.824Z,8.10
2023-01-12T00:22:08.676Z,8.10
2023-01-12T00:24:38.523Z,8.10
2023-01-12T00:27:08.651Z,8.10
2023-01-12T00:29:37.340Z,8.10
2023-01-12T00:32:06.788Z,8.10
2023-01-12T00:34:36.223Z,8.10
2023-01-12T00:37:05.232Z,8.10
2023-01-12T00:39:33.480Z,8.10
2023-01-12T00:42:18.995Z,8.10
2023-01-12T00:45:04.407Z,8.20
2023-01-12T00:47:32.521Z,8.20
2023-01-12T00:50:01.903Z,8.20
2023-01-12T00:52:31.383Z,8.20
2023-01-12T00:55:00.465Z,8.20
2023-01-12T00:57:28.808Z,8.20
2023-01-12T00:59:59.271Z,8.20
2023-01-12T01:02:28.353Z,8.10
2023-01-12T01:04:56.800Z,8.10
2023-01-12T01:07:26.588Z,8.10
2023-01-12T01:09:54.747Z,8.10
2023-01-12T01:12:22.806Z,8.10
2023-01-12T01:14:50.923Z,8.10
2023-01-12T01:17:19.036Z,8.10
2023-01-12T01:19:48.282Z,8.10
2023-01-12T01:22:16.449Z,8.00
2023-01-12T01:24:45.974Z,8.00
2023-01-12T01:27:14.209Z,8.00
2023-01-12T01:29:42.296Z,7.90
2023-01-12T01:32:10.404Z,7.90
2023-01-12T01:34:38.495Z,7.90
2023-01-12T01:37:06.585Z,7.90
2023-01-12T01:39:34.607Z,7.90
2023-01-12T01:42:04.170Z,7.80
2023-01-12T01:44:51.754Z,7.90
2023-01-12T01:47:29.140Z,7.80
2023-01-12T01:50:00.597Z,7.80
2023-01-12T01:52:33.550Z,7.80
2023-01-12T01:55:07.748Z,7.80
2023-01-12T01:57:43.725Z,7.80
2023-01-12T02:00:14.323Z,7.80
2023-01-12T02:02:44.914Z,7.80
2023-01-12T02:05:14.791Z,7.80
2023-01-12T02:07:43.226Z,7.90
2023-01-12T02:10:12.023Z,7.80
2023-01-12T02:12:59.143Z,7.80
2023-01-12T02:15:47.599Z,7.80
2023-01-12T02:18:22.701Z,7.80
2023-01-12T02:21:00.224Z,7.80
2023-01-12T02:24:08.553Z,7.80
2023-01-12T02:27:15.911Z,7.80
2023-01-12T02:30:29.197Z,7.80
2023-01-12T02:33:12.281Z,7.90
2023-01-12T02:35:46.570Z,7.90
2023-01-12T02:38:27.869Z,7.90
2023-01-12T02:41:04.266Z,7.90
2023-01-12T02:43:33.065Z,7.90
2023-01-12T02:46:11.289Z,7.90
2023-01-12T02:48:45.788Z,7.90
2023-01-12T02:51:19.472Z,7.90
2023-01-12T02:53:51.093Z,7.90
2023-01-12T02:56:22.628Z,7.90
2023-01-12T02:58:55.355Z,7.90
2023-01-12T03:01:26.186Z,7.90
2023-01-12T03:04:01.098Z,7.90
2023-01-12T03:06:41.703Z,7.90
2023-01-12T03:09:10.881Z,7.90
2023-01-12T03:11:41.685Z,7.90
2023-01-12T03:14:12.179Z,7.90
2023-01-12T03:16:41.479Z,7.80
2023-01-12T03:19:15.803Z,7.80
2023-01-12T03:21:51.485Z,7.80
2023-01-12T03:24:24.353Z,7.80
2023-01-12T03:26:56.266Z,7.80
2023-01-12T03:29:28.681Z,7.80
2023-01-12T03:31:59.269Z,7.80
2023-01-12T03:34:29.056Z,7.70
2023-01-12T03:37:00.569Z,7.70
2023-01-12T03:39:38.695Z,7.70
2023-01-12T03:42:14.439Z,7.70
2023-01-12T03:44:50.827Z,7.60
2023-01-12T03:47:23.551Z,7.60
2023-01-12T03:49:56.185Z,7.50
2023-01-12T03:52:26.436Z,7.50
2023-01-12T03:54:57.844Z,7.50
2023-01-12T03:57:27.125Z,7.40
2023-01-12T03:59:56.212Z,7.40
2023-01-12T04:02:24.364Z,7.30
2023-01-12T04:04:53.791Z,7.30
2023-01-12T04:07:23.131Z,7.30
2023-01-12T04:09:51.147Z,7.20
2023-01-12T04:12:18.212Z,7.20
2023-01-12T04:14:48.576Z,7.10
2023-01-12T04:17:17.419Z,7.10
2023-01-12T04:19:45.489Z,7.10
2023-01-12T04:22:34.324Z,7.10
2023-01-12T04:25:02.456Z,7.10
2023-01-12T04:27:30.582Z,7.00
2023-01-12T04:29:58.596Z,7.00
2023-01-12T04:32:26.689Z,7.00
2023-01-12T04:34:54.728Z,7.00
2023-01-12T04:37:24.254Z,6.90
2023-01-12T04:39:52.297Z,6.90
2023-01-12T04:42:37.722Z,6.90
2023-01-12T04:45:06.677Z,6.90
2023-01-12T04:47:35.278Z,6.80
2023-01-12T04:50:03.359Z,6.80
2023-01-12T04:52:32.794Z,6.80
2023-01-12T04:55:00.819Z,6.70
2023-01-12T04:57:29.233Z,6.60
2023-01-12T04:59:57.300Z,6.60
2023-01-12T05:02:25.426Z,6.60
2023-01-12T05:04:53.442Z,6.50
2023-01-12T05:07:21.583Z,6.50
2023-01-12T05:10:08.630Z,6.40
2023-01-12T05:12:36.745Z,6.40
2023-01-12T05:15:05.196Z,6.30
2023-01-12T05:17:33.552Z,6.30
2023-01-12T05:20:01.768Z,6.20
2023-01-12T05:22:29.838Z,6.20
2023-01-12T05:24:59.300Z,6.10
2023-01-12T05:27:27.398Z,6.10
2023-01-12T05:29:57.046Z,6.10
2023-01-12T05:32:25.109Z,6.00
2023-01-12T05:34:53.214Z,6.00
2023-01-12T05:37:21.301Z,6.00
2023-01-12T05:39:49.334Z,6.10
2023-01-12T05:42:36.322Z,6.10
2023-01-12T05:45:04.678Z,6.10
2023-01-12T05:47:32.707Z,6.20
2023-01-12T05:50:00.799Z,6.20
2023-01-12T05:52:28.932Z,6.20
2023-01-12T05:54:56.947Z,6.30
2023-01-12T05:57:26.392Z,6.30
2023-01-12T05:59:54.418Z,6.30
2023-01-12T06:02:22.613Z,6.30
2023-01-12T06:04:50.772Z,6.30
2023-01-12T06:07:18.918Z,6.30
2023-01-12T06:09:47.165Z,6.30
2023-01-12T06:12:33.110Z,6.30
2023-01-12T06:15:02.521Z,6.20
2023-01-12T06:17:31.959Z,6.20
2023-01-12T06:19:59.981Z,6.20
2023-01-12T06:22:28.121Z,6.20
2023-01-12T06:24:56.137Z,6.20
2023-01-12T06:27:24.289Z,6.20
2023-01-12T06:29:52.306Z,6.10
2023-01-12T06:32:21.751Z,6.10
2023-01-12T06:34:49.769Z,6.10
2023-01-12T06:37:17.871Z,6.20
2023-01-12T06:39:45.924Z,6.20
2023-01-12T06:42:32.909Z,6.20
2023-01-12T06:45:03.906Z,6.30
2023-01-12T06:47:33.646Z,6.30
2023-01-12T06:50:01.667Z,6.40
2023-01-12T06:52:30.316Z,6.40
2023-01-12T06:54:59.289Z,6.40
2023-01-12T06:57:27.415Z,6.40
2023-01-12T06:59:56.454Z,6.50
2023-01-12T07:02:24.615Z,6.50
2023-01-12T07:04:54.132Z,6.50
2023-01-12T07:07:22.255Z,6.50
2023-01-12T07:09:50.267Z,6.60
2023-01-12T07:12:18.513Z,6.60
2023-01-12T07:14:46.531Z,6.70
2023-01-12T07:17:14.618Z,6.60
2023-01-12T07:19:43.365Z,6.60
2023-01-12T07:22:12.788Z,6.60
2023-01-12T07:24:40.870Z,6.60
2023-01-12T07:27:08.920Z,6.70
2023-01-12T07:29:36.953Z,6.70
2023-01-12T07:32:05.520Z,6.70
2023-01-12T07:34:33.578Z,6.80
2023-01-12T07:37:01.708Z,6.80
2023-01-12T07:39:31.130Z,6.90
2023-01-12T07:42:16.635Z,6.90
2023-01-12T07:44:44.741Z,6.90
2023-01-12T07:47:12.783Z,7.00
2023-01-12T07:49:40.843Z,7.00
2023-01-12T07:52:08.961Z,7.10
2023-01-12T07:54:38.614Z,7.20
2023-01-12T07:57:10.148Z,7.20
2023-01-12T07:59:38.202Z,7.30
2023-01-12T08:02:06.860Z,7.40
2023-01-12T08:04:35.100Z,7.50
2023-01-12T08:07:03.259Z,7.60
2023-01-12T08:09:31.281Z,7.70
2023-01-12T08:12:00.766Z,7.70
2023-01-12T08:14:33.252Z,7.80
2023-01-12T08:17:03.284Z,7.90
2023-01-12T08:19:38.619Z,7.90
2023-01-12T08:22:11.056Z,8.00
2023-01-12T08:24:47.383Z,8.10
2023-01-12T08:27:18.249Z,8.20
2023-01-12T08:29:48.681Z,8.30
2023-01-12T08:32:18.759Z,8.40
2023-01-12T08:34:49.919Z,8.50
2023-01-12T08:37:22.085Z,8.50
2023-01-12T08:39:51.463Z,8.60
2023-01-12T08:42:23.590Z,8.70
2023-01-12T08:44:52.443Z,8.70
2023-01-12T08:47:22.877Z,8.80
2023-01-12T08:49:50.934Z,8.90
2023-01-12T08:52:18.979Z,9.00
2023-01-12T08:54:47.009Z,9.10
2023-01-12T08:57:16.291Z,9.20
2023-01-12T08:59:45.761Z,9.20
2023-01-12T09:02:14.625Z,9.30
2023-01-12T09:04:43.403Z,9.30
2023-01-12T09:07:12.975Z,9.40
2023-01-12T09:09:41.066Z,9.50
2023-01-12T09:12:09.176Z,9.60
2023-01-12T09:14:40.042Z,9.70
2023-01-12T09:17:09.577Z,9.70
2023-01-12T09:19:37.597Z,9.70
2023-01-12T09:22:05.867Z,9.70
2023-01-12T09:24:33.919Z,9.70
2023-01-12T09:27:02.081Z,9.70
2023-01-12T09:29:30.115Z,9.70
2023-01-12T09:31:58.261Z,9.70
2023-01-12T09:34:27.844Z,9.80
2023-01-12T09:36:56.716Z,9.80
2023-01-12T09:39:28.540Z,9.90
2023-01-12T09:42:15.325Z,9.90
2023-01-12T09:45:02.973Z,9.90
2023-01-12T09:47:36.445Z,9.90
2023-01-12T09:50:11.705Z,9.90
2023-01-12T09:52:44.821Z,9.90
2023-01-12T09:55:18.038Z,10.00
2023-01-12T09:58:15.027Z,10.10
2023-01-12T10:00:43.137Z,10.10
2023-01-12T10:03:16.887Z,10.20
2023-01-12T10:05:50.392Z,10.20
2023-01-12T10:08:24.514Z,10.20
2023-01-12T10:11:04.184Z,10.30
2023-01-12T10:13:56.254Z,10.30
2023-01-12T10:16:32.030Z,10.30
2023-01-12T10:19:04.181Z,10.30
2023-01-12T10:21:33.825Z,10.30
2023-01-12T10:24:01.864Z,10.40
2023-01-12T10:26:38.804Z,10.50
2023-01-12T10:29:06.891Z,10.60
2023-01-12T10:31:35.113Z,11.00
2023-01-12T10:34:06.931Z,11.50
2023-01-12T10:36:37.837Z,11.80
2023-01-12T10:39:26.588Z,12.10
2023-01-12T10:42:36.868Z,12.30
2023-01-12T10:45:16.286Z,12.60
2023-01-12T10:47:46.079Z,12.90
2023-01-12T10:50:26.342Z,13.10
2023-01-12T10:53:19.487Z,13.20
2023-01-12T10:55:47.929Z,13.50
2023-01-12T10:58:21.971Z,13.60
2023-01-12T11:00:52.152Z,13.60
2023-01-12T11:03:33.027Z,13.60
2023-01-12T11:06:22.893Z,13.60
2023-01-12T11:08:52.731Z,13.60
2023-01-12T11:11:30.950Z,13.70
2023-01-12T11:14:01.238Z,13.70
2023-01-12T11:16:33.853Z,13.60
2023-01-12T11:19:17.449Z,13.60
2023-01-12T11:21:50.926Z,13.60
2023-01-12T11:24:32.620Z,13.70
2023-01-12T11:27:04.815Z,13.80
2023-01-12T11:29:40.650Z,13.90
2023-01-12T11:32:15.746Z,14.00
2023-01-12T11:34:56.862Z,14.00
2023-01-12T11:37:24.926Z,14.00
2023-01-12T11:40:01.307Z,13.90
2023-01-12T11:42:49.556Z,13.90
2023-01-12T11:45:24.262Z,13.80
2023-01-12T11:47:55.954Z,13.70
2023-01-12T11:50:28.605Z,13.60
2023-01-12T11:53:08.319Z,13.70
2023-01-12T11:55:52.750Z,13.90
2023-01-12T11:58:27.568Z,14.00
2023-01-12T12:01:08.336Z,14.00
2023-01-12T12:03:51.205Z,14.10
2023-01-12T12:06:44.964Z,14.00
2023-01-12T12:09:35.302Z,13.90
2023-01-12T12:12:12.279Z,13.90
2023-01-12T12:14:54.983Z,14.10
2023-01-12T12:17:28.612Z,14.40
2023-01-12T12:20:08.443Z,14.90
2023-01-12T12:22:53.628Z,15.60
2023-01-12T12:25:34.002Z,16.40
2023-01-12T12:28:19.656Z,17.00
2023-01-12T12:31:05.371Z,17.40
2023-01-12T12:33:44.264Z,17.80
2023-01-12T12:36:19.619Z,18.20
2023-01-12T12:39:19.966Z,18.50
2023-01-12T12:42:14.068Z,18.80
2023-01-12T12:45:11.391Z,19.30
2023-01-12T12:47:53.925Z,19.80
2023-01-12T12:50:24.993Z,20.20
2023-01-12T12:53:24.042Z,20.30
2023-01-12T12:58:41.630Z,20.30
2023-01-12T13:01:42.714Z,20.20
2023-01-12T13:04:14.963Z,20.20
2023-01-12T13:06:49.516Z,20.10
2023-01-12T13:09:41.082Z,19.80
2023-01-12T13:12:33.932Z,19.60
2023-01-12T13:15:32.540Z,19.70
2023-01-12T13:18:02.017Z,19.90
2023-01-12T13:20:55.720Z,19.90
2023-01-12T13:23:52.282Z,19.60
2023-01-12T13:26:52.230Z,19.30
2023-01-12T13:29:43.885Z,19.00
2023-01-12T13:32:41.400Z,18.90
2023-01-12T13:35:44.900Z,18.90
2023-01-12T13:38:20.257Z,18.70
2023-01-12T13:40:55.650Z,18.50
2023-01-12T13:43:27.608Z,18.40
2023-01-12T13:45:59.162Z,18.10
2023-01-12T13:48:28.922Z,17.70
2023-01-12T13:51:00.144Z,17.40
2023-01-12T13:53:31.599Z,17.20
2023-01-12T13:56:02.009Z,17.00
2023-01-12T13:58:38.839Z,17.00
2023-01-12T14:01:08.750Z,17.20
2023-01-12T14:03:56.504Z,17.40
2023-01-12T14:06:33.391Z,17.60
2023-01-12T14:09:11.670Z,17.60
2023-01-12T14:12:07.959Z,17.40
2023-01-12T14:15:33.125Z,17.20
2023-01-12T14:18:06.255Z,16.80
2023-01-12T14:20:43.112Z,16.40
2023-01-12T14:23:23.076Z,16.10
2023-01-12T14:26:14.875Z,15.70
2023-01-12T14:28:44.951Z,15.40
2023-01-12T14:31:20.518Z,15.20
2023-01-12T14:33:54.648Z,15.10
2023-01-12T14:36:25.971Z,15.00
2023-01-12T14:38:54.529Z,15.00
2023-01-12T14:41:43.980Z,15.00
2023-01-12T14:44:38.748Z,15.00
2023-01-12T14:47:07.271Z,14.80
2023-01-12T14:49:36.513Z,14.70
2023-01-12T14:52:26.163Z,14.50
2023-01-12T14:54:54.323Z,14.40
2023-01-12T14:57:29.888Z,14.20
2023-01-12T14:59:58.650Z,14.10
2023-01-12T15:02:36.249Z,14.00
2023-01-12T15:05:07.182Z,13.80
2023-01-12T15:07:38.420Z,13.70
2023-01-12T15:10:30.123Z,13.60
2023-01-12T15:12:59.275Z,13.40
2023-01-12T15:15:48.904Z,13.30
2023-01-12T15:18:34.913Z,13.20
2023-01-12T15:21:21.004Z,13.10
2023-01-12T15:24:07.697Z,13.00
2023-01-12T15:26:37.149Z,12.90
2023-01-12T15:29:05.178Z,12.70
2023-01-12T15:31:36.012Z,12.60
2023-01-12T15:34:05.769Z,12.50
2023-01-12T15:36:33.890Z,12.40
2023-01-12T15:39:01.979Z,12.30
2023-01-12T15:41:50.434Z,12.20
2023-01-12T15:44:21.374Z,12.20
2023-01-12T15:46:49.521Z,12.00
2023-01-12T15:49:18.483Z,12.00
2023-01-12T15:51:50.190Z,11.90
2023-01-12T15:54:19.667Z,11.70
2023-01-12T15:56:48.252Z,11.70
2023-01-12T15:59:16.545Z,11.60
2023-01-12T16:01:49.912Z,11.50
2023-01-12T16:07:08.666Z,11.30
2023-01-12T16:09:37.287Z,11.20
2023-01-12T16:12:06.051Z,11.20
2023-01-12T16:14:34.328Z,11.10
2023-01-12T16:17:04.178Z,11.00
2023-01-12T16:19:32.227Z,10.90
2023-01-12T16:22:00.328Z,10.80
2023-01-12T16:24:30.945Z,10.80
2023-01-12T16:26:59.236Z,10.70
2023-01-12T16:29:27.321Z,10.60
2023-01-12T16:31:55.461Z,10.50
2023-01-12T16:34:25.024Z,10.50
2023-01-12T16:36:53.157Z,10.50
2023-01-12T16:39:21.184Z,10.40
2023-01-12T16:41:50.024Z,10.40
2023-01-12T16:44:18.074Z,10.30
2023-01-12T16:46:48.602Z,10.30
2023-01-12T16:49:16.691Z,10.20
2023-01-12T16:51:46.337Z,10.10
2023-01-12T16:54:14.427Z,10.10
2023-01-12T16:56:42.607Z,10.00
2023-01-12T16:59:10.630Z,10.00
2023-01-12T17:01:38.997Z,9.90
2023-01-12T17:04:07.215Z,9.80
2023-01-12T17:06:35.401Z,9.80
2023-01-12T17:09:06.416Z,9.80
2023-01-12T17:11:35.704Z,9.70
2023-01-12T17:14:22.984Z,9.70
2023-01-12T17:16:51.958Z,9.70
2023-01-12T17:19:21.598Z,9.60
2023-01-12T17:21:50.878Z,9.70
2023-01-12T17:24:21.882Z,9.60
2023-01-12T17:26:52.116Z,9.60
2023-01-12T17:29:21.725Z,9.60
2023-01-12T17:31:50.573Z,9.60
2023-01-12T17:34:19.210Z,9.50
2023-01-12T17:36:47.660Z,9.50
2023-01-12T17:39:15.752Z,9.50
2023-01-12T17:42:02.987Z,9.40
2023-01-12T17:44:31.844Z,9.40
2023-01-12T17:47:00.051Z,9.30
2023-01-12T17:49:28.372Z,9.20
2023-01-12T17:51:56.589Z,9.20
2023-01-12T17:54:25.567Z,9.20
2023-01-12T17:56:55.905Z,9.10
2023-01-12T17:59:24.922Z,9.10
2023-01-12T18:01:53.686Z,9.10
2023-01-12T18:04:21.795Z,9.00
2023-01-12T18:06:50.061Z,9.00
2023-01-12T18:09:18.485Z,9.00
2023-01-12T18:11:50.771Z,8.90
2023-01-12T18:14:21.508Z,8.90
2023-01-12T18:16:49.658Z,8.90
2023-01-12T18:19:17.832Z,8.80
2023-01-12T18:21:45.967Z,8.80
2023-01-12T18:24:14.028Z,8.70
2023-01-12T18:26:42.132Z,8.80
2023-01-12T18:29:10.178Z,8.70
2023-01-12T18:31:42.508Z,8.60
2023-01-12T18:34:12.436Z,8.60
2023-01-12T18:36:43.253Z,8.60
2023-01-12T18:39:16.034Z,8.50
2023-01-12T18:42:02.637Z,8.50
2023-01-12T18:44:32.068Z,8.40
2023-01-12T18:47:19.658Z,8.40
2023-01-12T18:49:48.266Z,8.30
2023-01-12T18:52:35.046Z,8.30
2023-01-12T18:55:03.531Z,8.20
2023-01-12T18:57:33.302Z,8.10
2023-01-12T19:00:17.219Z,8.10
2023-01-12T19:02:47.001Z,8.00
2023-01-12T19:05:22.979Z,7.90
2023-01-12T19:08:04.477Z,7.90
2023-01-12T19:10:33.655Z,7.90
2023-01-12T19:13:19.566Z,7.80
2023-01-12T19:16:05.208Z,7.80
2023-01-12T19:18:36.252Z,7.70
2023-01-12T19:21:26.834Z,7.60
2023-01-12T19:24:12.542Z,7.60
2023-01-12T19:26:58.035Z,7.60
2023-01-12T19:29:26.405Z,7.50
2023-01-12T19:31:54.577Z,7.50
2023-01-12T19:34:25.646Z,7.50
2023-01-12T19:36:53.787Z,7.50
2023-01-12T19:39:33.867Z,7.50
2023-01-12T19:42:19.336Z,7.50
2023-01-12T19:44:47.407Z,7.40
2023-01-12T19:47:15.567Z,7.40
2023-01-12T19:49:45.021Z,7.40
2023-01-12T19:52:13.101Z,7.40
2023-01-12T19:54:41.143Z,7.40
2023-01-12T19:57:09.223Z,7.30
2023-01-12T19:59:37.284Z,7.30
2023-01-12T20:02:05.989Z,7.30
2023-01-12T20:04:34.365Z,7.20
2023-01-12T20:07:03.808Z,7.30
2023-01-12T20:09:31.833Z,7.20
2023-01-12T20:11:59.961Z,7.20
2023-01-12T20:14:28.002Z,7.10
2023-01-12T20:16:56.038Z,7.10
2023-01-12T20:19:24.089Z,7.10
2023-01-12T20:21:52.130Z,7.00
2023-01-12T20:24:21.579Z,7.00
2023-01-12T20:26:49.739Z,7.00
2023-01-12T20:29:17.977Z,7.00
2023-01-12T20:31:46.686Z,7.00
2023-01-12T20:34:14.796Z,7.00
2023-01-12T20:36:45.501Z,7.00
2023-01-12T20:39:15.662Z,6.90
2023-01-12T20:41:45.249Z,6.90
2023-01-12T20:44:16.873Z,6.90
2023-01-12T20:46:45.374Z,6.90
2023-01-12T20:49:13.513Z,6.90
2023-01-12T20:51:41.645Z,6.90
2023-01-12T20:54:11.086Z,6.90
2023-01-12T20:56:39.200Z,6.90
2023-01-12T20:59:08.706Z,6.90
2023-01-12T21:01:37.253Z,6.90
2023-01-12T21:04:05.424Z,6.80
2023-01-12T21:06:33.658Z,6.80
2023-01-12T21:09:01.699Z,6.80
2023-01-12T21:11:29.893Z,6.90
2023-01-12T21:13:57.959Z,6.90
2023-01-12T21:16:27.689Z,6.90
2023-01-12T21:18:56.628Z,6.90
2023-01-12T21:21:24.730Z,6.90
2023-01-12T21:23:52.860Z,6.90
2023-01-12T21:26:21.091Z,7.00
2023-01-12T21:28:49.127Z,7.00
2023-01-12T21:31:17.807Z,7.00
2023-01-12T21:33:47.415Z,7.00
2023-01-12T21:36:17.964Z,7.00
2023-01-12T21:38:49.977Z,7.10
2023-01-12T21:41:18.623Z,7.10
2023-01-12T21:43:49.956Z,7.10
2023-01-12T21:46:18.831Z,7.10
2023-01-12T21:48:48.429Z,7.10
2023-01-12T21:51:18.131Z,7.20
2023-01-12T21:53:46.166Z,7.20
2023-01-12T21:56:14.624Z,7.20
2023-01-12T21:58:42.684Z,7.20
2023-01-12T22:01:12.907Z,7.20
2023-01-12T22:03:41.342Z,7.20
2023-01-12T22:06:12.598Z,7.20
2023-01-12T22:08:42.114Z,7.20
2023-01-12T22:11:12.865Z,7.30
2023-01-12T22:13:41.580Z,7.30
2023-01-12T22:16:12.099Z,7.30
2023-01-12T22:18:41.026Z,7.30
2023-01-12T22:21:11.359Z,7.30
2023-01-12T22:23:39.908Z,7.30
2023-01-12T22:26:10.033Z,7.30
2023-01-12T22:28:40.238Z,7.30
2023-01-12T22:31:09.979Z,7.30
2023-01-12T22:33:38.114Z,7.30
2023-01-12T22:36:08.014Z,7.30
2023-01-12T22:38:37.451Z,7.40
2023-01-12T22:41:06.987Z,7.40
2023-01-12T22:43:40.596Z,7.40
2023-01-12T22:46:15.756Z,7.40
2023-01-12T22:48:44.089Z,7.40
2023-01-12T22:51:12.325Z,7.40
2023-01-12T22:53:41.729Z,7.40
2023-01-12T22:56:12.075Z,7.40
2023-01-12T22:58:40.164Z,7.40
2023-01-12T23:01:09.858Z,7.40
2023-01-12T23:03:38.576Z,7.50
2023-01-12T23:06:08.019Z,7.50
2023-01-12T23:08:36.033Z,7.50
2023-01-12T23:11:07.054Z,7.50
2023-01-12T23:13:35.607Z,7.40
2023-01-12T23:16:06.952Z,7.40
2023-01-12T23:18:36.519Z,7.40
2023-01-12T23:21:11.179Z,7.40
2023-01-12T23:23:39.939Z,7.40
2023-01-12T23:26:11.580Z,7.40
2023-01-12T23:28:43.103Z,7.40
2023-01-12T23:31:13.457Z,7.40
2023-01-12T23:33:43.578Z,7.40
2023-01-12T23:36:14.971Z,7.40
2023-01-12T23:38:43.731Z,7.40
2023-01-12T23:41:19.160Z,7.40
2023-01-12T23:43:47.904Z,7.40
2023-01-12T23:46:17.094Z,7.40
2023-01-12T23:48:45.329Z,7.40
2023-01-12T23:51:13.420Z,7.40
2023-01-12T23:53:41.544Z,7.40
2023-01-12T23:56:12.433Z,7.40
2023-01-12T23:58:43.018Z,7.40
